sensor_id;sensor_type;location;lat;lon;timestamp;pressure;altitude;pressure_sealevel;temperature;humidity
51321;BME280;38732;49.556;6.286;2023-03-12T00:00:05;99251.78;;;3.94;72.74
51321;BME280;38732;49.556;6.286;2023-03-12T00:02:33;99243.59;;;4.07;72.19
51321;BME280;38732;49.556;6.286;2023-03-12T00:05:02;99233.53;;;4.15;72.86
51321;BME280;38732;49.556;6.286;2023-03-12T00:07:31;99231.09;;;4.20;72.53
51321;BME280;38732;49.556;6.286;2023-03-12T00:09:59;99239.56;;;4.19;72.69
51321;BME280;38732;49.556;6.286;2023-03-12T00:12:27;99238.66;;;4.17;73.39
51321;BME280;38732;49.556;6.286;2023-03-12T00:14:55;99239.56;;;4.19;72.69
51321;BME280;38732;49.556;6.286;2023-03-12T00:17:23;99236.03;;;4.14;72.16
51321;BME280;38732;49.556;6.286;2023-03-12T00:19:52;99242.91;;;4.16;73.06
51321;BME280;38732;49.556;6.286;2023-03-12T00:22:20;99229.22;;;4.13;73.35
51321;BME280;38732;49.556;6.286;2023-03-12T00:24:53;99228.38;;;4.14;73.56
51321;BME280;38732;49.556;6.286;2023-03-12T00:27:22;99236.16;;;4.18;73.95
51321;BME280;38732;49.556;6.286;2023-03-12T00:29:51;99242.97;;;4.19;75.49
51321;BME280;38732;49.556;6.286;2023-03-12T00:32:19;99236.38;;;4.29;75.87
51321;BME280;38732;49.556;6.286;2023-03-12T00:34:52;99244.94;;;4.29;74.41
51321;BME280;38732;49.556;6.286;2023-03-12T00:37:20;99233.06;;;4.33;73.09
51321;BME280;38732;49.556;6.286;2023-03-12T00:39:49;99231.19;;;4.26;73.12
51321;BME280;38732;49.556;6.286;2023-03-12T00:42:18;99226.84;;;4.22;74.75
51321;BME280;38732;49.556;6.286;2023-03-12T00:44:46;99216.94;;;4.36;73.52
51321;BME280;38732;49.556;6.286;2023-03-12T00:47:14;99219.75;;;4.48;72.49
51321;BME280;38732;49.556;6.286;2023-03-12T00:49:42;99212.91;;;4.47;72.68
51321;BME280;38732;49.556;6.286;2023-03-12T00:52:11;99216.44;;;4.52;72.97
51321;BME280;38732;49.556;6.286;2023-03-12T00:54:39;99217.03;;;4.42;72.52
51321;BME280;38732;49.556;6.286;2023-03-12T00:57:07;99215.47;;;4.48;72.72
51321;BME280;38732;49.556;6.286;2023-03-12T00:59:35;99225.00;;;4.56;72.11
51321;BME280;38732;49.556;6.286;2023-03-12T01:02:03;99218.09;;;4.50;73.59
51321;BME280;38732;49.556;6.286;2023-03-12T01:04:32;99219.75;;;4.48;74.20
51321;BME280;38732;49.556;6.286;2023-03-12T01:07:00;99216.34;;;4.49;73.49
51321;BME280;38732;49.556;6.286;2023-03-12T01:09:28;99213.69;;;4.43;75.13
51321;BME280;38732;49.556;6.286;2023-03-12T01:11:56;99210.47;;;4.53;75.26
51321;BME280;38732;49.556;6.286;2023-03-12T01:14:24;99207.00;;;4.49;73.70
51321;BME280;38732;49.556;6.286;2023-03-12T01:16:53;99211.41;;;4.58;73.60
51321;BME280;38732;49.556;6.286;2023-03-12T01:19:21;99201.13;;;4.55;73.12
51321;BME280;38732;49.556;6.286;2023-03-12T01:21:49;99202.16;;;4.63;73.10
51321;BME280;38732;49.556;6.286;2023-03-12T01:24:17;99196.97;;;4.60;73.22
51321;BME280;38732;49.556;6.286;2023-03-12T01:26:45;99197.88;;;4.64;72.79
51321;BME280;38732;49.556;6.286;2023-03-12T01:29:14;99191.72;;;4.52;73.23
51321;BME280;38732;49.556;6.286;2023-03-12T01:31:42;99197.88;;;4.62;72.78
51321;BME280;38732;49.556;6.286;2023-03-12T01:34:10;99188.53;;;4.64;73.26
51321;BME280;38732;49.556;6.286;2023-03-12T01:36:39;99202.94;;;4.61;73.57
51321;BME280;38732;49.556;6.286;2023-03-12T01:39:07;99203.09;;;4.67;72.02
51321;BME280;38732;49.556;6.286;2023-03-12T01:41:36;99204.91;;;4.74;71.90
51321;BME280;38732;49.556;6.286;2023-03-12T01:44:04;99206.66;;;4.76;71.47
51321;BME280;38732;49.556;6.286;2023-03-12T01:46:40;99204.78;;;4.68;70.81
51321;BME280;38732;49.556;6.286;2023-03-12T01:49:30;99201.38;;;4.69;71.31
51321;BME280;38732;49.556;6.286;2023-03-12T01:52:08;99199.72;;;4.69;70.93
51321;BME280;38732;49.556;6.286;2023-03-12T01:54:44;99197.47;;;4.86;72.60
51321;BME280;38732;49.556;6.286;2023-03-12T01:57:30;99194.09;;;4.89;71.30
51321;BME280;38732;49.556;6.286;2023-03-12T02:00:04;99183.91;;;4.90;71.38
51321;BME280;38732;49.556;6.286;2023-03-12T02:02:35;99171.25;;;4.98;70.81
51321;BME280;38732;49.556;6.286;2023-03-12T02:05:28;99168.75;;;5.03;71.51
51321;BME280;38732;49.556;6.286;2023-03-12T02:08:00;99168.59;;;4.93;72.38
51321;BME280;38732;49.556;6.286;2023-03-12T02:10:29;99159.28;;;4.97;73.22
51321;BME280;38732;49.556;6.286;2023-03-12T02:12:57;99171.53;;;5.16;73.60
51321;BME280;38732;49.556;6.286;2023-03-12T02:15:25;99169.03;;;5.18;70.60
51321;BME280;38732;49.556;6.286;2023-03-12T02:17:54;99168.91;;;5.10;72.11
51321;BME280;38732;49.556;6.286;2023-03-12T02:20:48;99167.19;;;5.09;71.69
51321;BME280;38732;49.556;6.286;2023-03-12T02:23:41;99168.03;;;5.11;73.39
51321;BME280;38732;49.556;6.286;2023-03-12T02:26:12;99170.50;;;5.05;72.76
51321;BME280;38732;49.556;6.286;2023-03-12T02:28:42;99173.94;;;5.06;72.65
51321;BME280;38732;49.556;6.286;2023-03-12T02:31:17;99177.38;;;5.08;74.61
51321;BME280;38732;49.556;6.286;2023-03-12T02:33:46;99173.22;;;5.13;75.50
51321;BME280;38732;49.556;6.286;2023-03-12T02:36:14;99178.41;;;5.17;76.19
51321;BME280;38732;49.556;6.286;2023-03-12T02:38:46;99171.75;;;5.27;76.39
51321;BME280;38732;49.556;6.286;2023-03-12T02:41:28;99177.81;;;5.34;75.47
51321;BME280;38732;49.556;6.286;2023-03-12T02:44:01;99170.19;;;5.37;75.00
51321;BME280;38732;49.556;6.286;2023-03-12T02:46:36;99163.28;;;5.33;73.20
51321;BME280;38732;49.556;6.286;2023-03-12T02:49:07;99164.25;;;5.39;74.48
51321;BME280;38732;49.556;6.286;2023-03-12T02:51:35;99157.41;;;5.38;73.72
51321;BME280;38732;49.556;6.286;2023-03-12T02:54:03;99152.31;;;5.40;74.45
51321;BME280;38732;49.556;6.286;2023-03-12T02:56:32;99150.69;;;5.45;74.39
51321;BME280;38732;49.556;6.286;2023-03-12T02:59:00;99147.31;;;5.48;74.60
51321;BME280;38732;49.556;6.286;2023-03-12T03:01:29;99143.75;;;5.38;75.15
51321;BME280;38732;49.556;6.286;2023-03-12T03:03:57;99142.75;;;5.28;76.24
51321;BME280;38732;49.556;6.286;2023-03-12T03:06:25;99138.69;;;5.43;74.01
51321;BME280;38732;49.556;6.286;2023-03-12T03:08:54;99137.00;;;5.43;74.58
51321;BME280;38732;49.556;6.286;2023-03-12T03:11:22;99131.00;;;5.41;74.77
51321;BME280;38732;49.556;6.286;2023-03-12T03:13:51;99139.41;;;5.34;75.71
51321;BME280;38732;49.556;6.286;2023-03-12T03:16:20;99137.63;;;5.27;76.53
51321;BME280;38732;49.556;6.286;2023-03-12T03:18:48;99137.63;;;5.28;74.92
51321;BME280;38732;49.556;6.286;2023-03-12T03:21:16;99135.88;;;5.24;75.95
51321;BME280;38732;49.556;6.286;2023-03-12T03:23:47;99137.47;;;5.17;75.82
51321;BME280;38732;49.556;6.286;2023-03-12T03:26:18;99134.09;;;5.22;76.82
51321;BME280;38732;49.556;6.286;2023-03-12T03:28:47;99124.66;;;5.19;76.83
51321;BME280;38732;49.556;6.286;2023-03-12T03:31:16;99123.16;;;5.30;76.92
51321;BME280;38732;49.556;6.286;2023-03-12T03:33:44;99113.81;;;5.34;76.00
51321;BME280;38732;49.556;6.286;2023-03-12T03:36:13;99120.50;;;5.26;77.67
51321;BME280;38732;49.556;6.286;2023-03-12T03:38:42;99117.06;;;5.22;76.75
51321;BME280;38732;49.556;6.286;2023-03-12T03:41:10;99116.22;;;5.23;76.13
51321;BME280;38732;49.556;6.286;2023-03-12T03:43:39;99119.56;;;5.19;76.14
51321;BME280;38732;49.556;6.286;2023-03-12T03:46:07;99117.06;;;5.22;76.63
51321;BME280;38732;49.556;6.286;2023-03-12T03:48:35;99113.56;;;5.18;76.23
51321;BME280;38732;49.556;6.286;2023-03-12T03:51:08;99112.91;;;5.30;77.11
51321;BME280;38732;49.556;6.286;2023-03-12T03:53:36;99111.94;;;5.22;77.57
51321;BME280;38732;49.556;6.286;2023-03-12T03:56:10;99114.50;;;5.24;78.26
51321;BME280;38732;49.556;6.286;2023-03-12T03:58:38;99113.75;;;5.29;79.48
51321;BME280;38732;49.556;6.286;2023-03-12T04:01:07;99099.13;;;5.21;79.49
51321;BME280;38732;49.556;6.286;2023-03-12T04:03:35;99099.34;;;5.36;79.66
51321;BME280;38732;49.556;6.286;2023-03-12T04:06:05;99096.09;;;5.48;79.52
51321;BME280;38732;49.556;6.286;2023-03-12T04:08:35;99103.69;;;5.41;79.83
51321;BME280;38732;49.556;6.286;2023-03-12T04:11:15;99094.25;;;5.39;79.17
51321;BME280;38732;49.556;6.286;2023-03-12T04:13:44;99100.19;;;5.36;79.06
51321;BME280;38732;49.556;6.286;2023-03-12T04:16:13;99097.59;;;5.32;79.56
51321;BME280;38732;49.556;6.286;2023-03-12T04:18:42;99103.56;;;5.34;80.97
51321;BME280;38732;49.556;6.286;2023-03-12T04:21:12;99103.63;;;5.38;79.44
51321;BME280;38732;49.556;6.286;2023-03-12T04:23:40;99101.00;;;5.34;80.40
51321;BME280;38732;49.556;6.286;2023-03-12T04:26:09;99096.09;;;5.48;79.28
51321;BME280;38732;49.556;6.286;2023-03-12T04:28:37;99088.25;;;5.35;78.95
51321;BME280;38732;49.556;6.286;2023-03-12T04:31:06;99083.97;;;5.34;79.89
51321;BME280;38732;49.556;6.286;2023-03-12T04:33:36;99082.31;;;5.38;80.75
51321;BME280;38732;49.556;6.286;2023-03-12T04:36:05;99089.09;;;5.34;81.28
51321;BME280;38732;49.556;6.286;2023-03-12T04:38:34;99084.00;;;5.39;83.18
51321;BME280;38732;49.556;6.286;2023-03-12T04:41:07;99095.94;;;5.35;82.60
51321;BME280;38732;49.556;6.286;2023-03-12T04:43:36;99094.25;;;5.39;82.92
51321;BME280;38732;49.556;6.286;2023-03-12T04:46:05;99096.81;;;5.37;84.30
51321;BME280;38732;49.556;6.286;2023-03-12T04:48:34;99090.88;;;5.40;82.86
51321;BME280;38732;49.556;6.286;2023-03-12T04:51:03;99089.81;;;5.24;85.58
51321;BME280;38732;49.556;6.286;2023-03-12T04:53:32;99090.78;;;5.32;86.15
51321;BME280;38732;49.556;6.286;2023-03-12T04:56:00;99089.13;;;5.39;86.60
51321;BME280;38732;49.556;6.286;2023-03-12T04:58:28;99088.22;;;5.34;87.62
51321;BME280;38732;49.556;6.286;2023-03-12T05:00:57;99086.50;;;5.33;87.19
51321;BME280;38732;49.556;6.286;2023-03-12T05:03:25;99088.22;;;5.34;87.62
51321;BME280;38732;49.556;6.286;2023-03-12T05:05:53;99096.59;;;5.22;88.82
51321;BME280;38732;49.556;6.286;2023-03-12T05:08:21;99091.59;;;5.31;90.76
51321;BME280;38732;49.556;6.286;2023-03-12T05:10:49;99087.38;;;5.35;89.92
51321;BME280;38732;49.556;6.286;2023-03-12T05:13:20;99094.25;;;5.37;89.85
51321;BME280;38732;49.556;6.286;2023-03-12T05:15:50;99095.97;;;5.38;90.76
51321;BME280;38732;49.556;6.286;2023-03-12T05:18:19;99092.50;;;5.36;91.31
51321;BME280;38732;49.556;6.286;2023-03-12T05:20:57;99094.38;;;5.45;90.71
51321;BME280;38732;49.556;6.286;2023-03-12T05:23:26;99098.56;;;5.41;90.92
51321;BME280;38732;49.556;6.286;2023-03-12T05:25:54;99090.88;;;5.40;92.22
51321;BME280;38732;49.556;6.286;2023-03-12T05:28:23;99093.47;;;5.43;90.50
51321;BME280;38732;49.556;6.286;2023-03-12T05:30:53;99096.66;;;5.28;89.68
51321;BME280;38732;49.556;6.286;2023-03-12T05:33:22;99099.34;;;5.36;89.82
51321;BME280;38732;49.556;6.286;2023-03-12T05:35:51;99094.28;;;5.40;90.44
51321;BME280;38732;49.556;6.286;2023-03-12T05:38:19;99102.78;;;5.38;91.14
51321;BME280;38732;49.556;6.286;2023-03-12T05:40:54;99103.69;;;5.41;91.01
51321;BME280;38732;49.556;6.286;2023-03-12T05:43:24;99101.94;;;5.37;90.95
51321;BME280;38732;49.556;6.286;2023-03-12T05:45:53;99097.78;;;5.46;91.24
51321;BME280;38732;49.556;6.286;2023-03-12T05:48:21;99095.25;;;5.47;92.64
51321;BME280;38732;49.556;6.286;2023-03-12T05:50:49;99091.84;;;5.48;91.88
51321;BME280;38732;49.556;6.286;2023-03-12T05:53:17;99095.31;;;5.53;91.50
51321;BME280;38732;49.556;6.286;2023-03-12T05:55:46;99095.34;;;5.55;91.10
51321;BME280;38732;49.556;6.286;2023-03-12T05:58:14;99092.13;;;5.67;91.38
51321;BME280;38732;49.556;6.286;2023-03-12T06:00:43;99084.41;;;5.65;90.93
51321;BME280;38732;49.556;6.286;2023-03-12T06:03:11;99089.44;;;5.60;90.71
51321;BME280;38732;49.556;6.286;2023-03-12T06:05:40;99086.94;;;5.62;91.95
51321;BME280;38732;49.556;6.286;2023-03-12T06:08:08;99089.47;;;5.63;93.38
51321;BME280;38732;49.556;6.286;2023-03-12T06:10:37;99093.81;;;5.68;92.87
51321;BME280;38732;49.556;6.286;2023-03-12T06:13:05;99102.34;;;5.68;94.23
51321;BME280;38732;49.556;6.286;2023-03-12T06:15:33;99108.41;;;5.72;94.71
51321;BME280;38732;49.556;6.286;2023-03-12T06:18:02;99109.31;;;5.78;94.39
51321;BME280;38732;49.556;6.286;2023-03-12T06:20:30;99111.94;;;5.83;93.88
51321;BME280;38732;49.556;6.286;2023-03-12T06:22:58;99108.66;;;5.93;93.96
51321;BME280;38732;49.556;6.286;2023-03-12T06:25:26;99111.22;;;5.93;94.58
51321;BME280;38732;49.556;6.286;2023-03-12T06:27:54;99119.91;;;6.01;95.93
51321;BME280;38732;49.556;6.286;2023-03-12T06:30:23;99114.03;;;6.10;94.17
51321;BME280;38732;49.556;6.286;2023-03-12T06:32:51;99108.03;;;6.08;94.36
51321;BME280;38732;49.556;6.286;2023-03-12T06:35:19;99114.84;;;6.04;93.21
51321;BME280;38732;49.556;6.286;2023-03-12T06:37:47;99115.72;;;6.07;93.07
51321;BME280;38732;49.556;6.286;2023-03-12T06:40:16;99117.47;;;6.09;94.36
51321;BME280;38732;49.556;6.286;2023-03-12T06:42:44;99126.09;;;6.19;94.70
51321;BME280;38732;49.556;6.286;2023-03-12T06:45:12;99130.16;;;5.42;100.00
51321;BME280;38732;49.556;6.286;2023-03-12T06:47:40;99132.25;;;5.13;100.00
51321;BME280;38732;49.556;6.286;2023-03-12T06:50:09;99128.47;;;6.02;95.92
51321;BME280;38732;49.556;6.286;2023-03-12T06:52:37;99131.78;;;5.95;99.80
51321;BME280;38732;49.556;6.286;2023-03-12T06:55:06;99128.72;;;5.59;100.00
51321;BME280;38732;49.556;6.286;2023-03-12T06:57:34;99128.59;;;6.13;96.51
51321;BME280;38732;49.556;6.286;2023-03-12T07:00:04;99128.38;;;5.96;98.93
51321;BME280;38732;49.556;6.286;2023-03-12T07:02:32;99122.03;;;6.36;96.04
51321;BME280;38732;49.556;6.286;2023-03-12T07:05:00;99120.72;;;5.99;98.24
51321;BME280;38732;49.556;6.286;2023-03-12T07:07:28;99127.69;;;5.47;98.23
51321;BME280;38732;49.556;6.286;2023-03-12T07:09:57;99119.47;;;6.38;97.40
51321;BME280;38732;49.556;6.286;2023-03-12T07:12:26;99124.94;;;6.67;93.71
51321;BME280;38732;49.556;6.286;2023-03-12T07:14:54;99119.91;;;6.81;92.29
51321;BME280;38732;49.556;6.286;2023-03-12T07:17:23;99117.34;;;6.78;91.54
51321;BME280;38732;49.556;6.286;2023-03-12T07:19:51;99112.22;;;6.81;90.87
51321;BME280;38732;49.556;6.286;2023-03-12T07:22:20;99113.88;;;6.76;91.85
51321;BME280;38732;49.556;6.286;2023-03-12T07:24:48;99133.88;;;6.25;95.65
51321;BME280;38732;49.556;6.286;2023-03-12T07:27:16;99146.94;;;6.45;99.64
51321;BME280;38732;49.556;6.286;2023-03-12T07:29:45;99156.69;;;6.80;95.55
51321;BME280;38732;49.556;6.286;2023-03-12T07:32:13;99151.84;;;7.09;92.57
51321;BME280;38732;49.556;6.286;2023-03-12T07:34:41;99155.25;;;7.08;91.55
51321;BME280;38732;49.556;6.286;2023-03-12T07:37:09;99156.09;;;7.08;91.74
51321;BME280;38732;49.556;6.286;2023-03-12T07:39:38;99155.38;;;7.22;91.19
51321;BME280;38732;49.556;6.286;2023-03-12T07:42:06;99159.63;;;7.21;91.96
51321;BME280;38732;49.556;6.286;2023-03-12T07:44:34;99154.59;;;7.32;91.21
51321;BME280;38732;49.556;6.286;2023-03-12T07:47:03;99157.16;;;7.29;90.22
51321;BME280;38732;49.556;6.286;2023-03-12T07:49:31;99161.44;;;7.33;91.27
51321;BME280;38732;49.556;6.286;2023-03-12T07:51:59;99158.16;;;7.49;90.21
51321;BME280;38732;49.556;6.286;2023-03-12T07:54:28;99149.59;;;7.53;91.66
51321;BME280;38732;49.556;6.286;2023-03-12T07:56:56;99146.25;;;7.61;92.34
51321;BME280;38732;49.556;6.286;2023-03-12T07:59:24;99148.81;;;7.64;91.08
51321;BME280;38732;49.556;6.286;2023-03-12T08:01:52;99146.38;;;7.81;91.71
51321;BME280;38732;49.556;6.286;2023-03-12T08:04:21;99147.28;;;7.90;90.81
51321;BME280;38732;49.556;6.286;2023-03-12T08:06:49;99147.38;;;8.09;90.09
51321;BME280;38732;49.556;6.286;2023-03-12T08:09:17;99155.91;;;8.02;90.67
51321;BME280;38732;49.556;6.286;2023-03-12T08:11:45;99149.06;;;8.02;92.16
51321;BME280;38732;49.556;6.286;2023-03-12T08:14:13;99151.69;;;8.17;91.53
51321;BME280;38732;49.556;6.286;2023-03-12T08:16:42;99148.34;;;8.32;89.64
51321;BME280;38732;49.556;6.286;2023-03-12T08:19:10;99156.03;;;8.31;90.92
51321;BME280;38732;49.556;6.286;2023-03-12T08:21:38;99160.31;;;8.27;94.58
51321;BME280;38732;49.556;6.286;2023-03-12T08:24:06;99155.25;;;8.46;93.10
51321;BME280;38732;49.556;6.286;2023-03-12T08:26:35;99165.59;;;8.49;91.42
51321;BME280;38732;49.556;6.286;2023-03-12T08:29:03;99168.94;;;8.38;94.40
51321;BME280;38732;49.556;6.286;2023-03-12T08:31:31;99174.13;;;8.46;93.79
51321;BME280;38732;49.556;6.286;2023-03-12T08:34:00;99181.84;;;8.40;94.54
51321;BME280;38732;49.556;6.286;2023-03-12T08:36:28;99182.72;;;8.45;95.71
51321;BME280;38732;49.556;6.286;2023-03-12T08:38:56;99177.63;;;8.68;93.23
51321;BME280;38732;49.556;6.286;2023-03-12T08:41:24;99187.97;;;8.80;93.69
51321;BME280;38732;49.556;6.286;2023-03-12T08:43:52;99187.97;;;8.88;93.30
51321;BME280;38732;49.556;6.286;2023-03-12T08:46:21;99202.56;;;8.81;94.39
51321;BME280;38732;49.556;6.286;2023-03-12T08:48:49;99201.75;;;8.99;92.82
51321;BME280;38732;49.556;6.286;2023-03-12T08:51:17;99202.59;;;9.06;92.43
51321;BME280;38732;49.556;6.286;2023-03-12T08:53:46;99214.56;;;8.78;95.02
51321;BME280;38732;49.556;6.286;2023-03-12T08:56:14;99204.25;;;8.78;96.51
51321;BME280;38732;49.556;6.286;2023-03-12T08:58:42;99206.84;;;8.81;95.97
51321;BME280;38732;49.556;6.286;2023-03-12T09:01:12;99213.72;;;8.74;96.07
51321;BME280;38732;49.556;6.286;2023-03-12T09:03:40;99198.38;;;9.42;92.29
51321;BME280;38732;49.556;6.286;2023-03-12T09:06:12;99209.53;;;9.52;91.87
51321;BME280;38732;49.556;6.286;2023-03-12T09:08:45;99207.81;;;9.74;92.91
51321;BME280;38732;49.556;6.286;2023-03-12T09:11:14;99214.66;;;9.78;91.77
51321;BME280;38732;49.556;6.286;2023-03-12T09:13:42;99215.53;;;9.84;92.48
51321;BME280;38732;49.556;6.286;2023-03-12T09:16:10;99220.69;;;9.66;92.83
51321;BME280;38732;49.556;6.286;2023-03-12T09:18:38;99218.06;;;10.13;91.42
51321;BME280;38732;49.556;6.286;2023-03-12T09:21:07;99215.44;;;10.38;91.13
51321;BME280;38732;49.556;6.286;2023-03-12T09:23:35;99215.47;;;10.24;89.55
51321;BME280;38732;49.556;6.286;2023-03-12T09:26:03;99220.53;;;10.55;87.81
51321;BME280;38732;49.556;6.286;2023-03-12T09:28:31;99230.81;;;10.67;86.32
51321;BME280;38732;49.556;6.286;2023-03-12T09:31:03;99229.84;;;10.90;87.97
51321;BME280;38732;49.556;6.286;2023-03-12T09:33:32;99242.16;;;9.43;95.33
51321;BME280;38732;49.556;6.286;2023-03-12T09:36:01;99241.28;;;10.21;92.23
51321;BME280;38732;49.556;6.286;2023-03-12T09:38:29;99239.38;;;10.80;87.27
51321;BME280;38732;49.556;6.286;2023-03-12T09:40:57;99234.16;;;10.88;86.19
51321;BME280;38732;49.556;6.286;2023-03-12T09:43:34;99236.78;;;10.80;87.33
51321;BME280;38732;49.556;6.286;2023-03-12T09:46:11;99246.41;;;10.23;92.54
51321;BME280;38732;49.556;6.286;2023-03-12T09:48:40;99252.25;;;10.86;90.39
51321;BME280;38732;49.556;6.286;2023-03-12T09:51:35;99243.78;;;10.56;92.63
51321;BME280;38732;49.556;6.286;2023-03-12T09:54:09;99239.19;;;11.18;91.87
51321;BME280;38732;49.556;6.286;2023-03-12T09:56:43;99238.53;;;10.70;96.52
51321;BME280;38732;49.556;6.286;2023-03-12T09:59:11;99232.13;;;11.42;93.42
51321;BME280;38732;49.556;6.286;2023-03-12T10:01:49;99236.34;;;11.54;94.83
51321;BME280;38732;49.556;6.286;2023-03-12T10:04:25;99228.97;;;12.09;93.39
51321;BME280;38732;49.556;6.286;2023-03-12T10:07:04;99222.22;;;12.73;89.15
51321;BME280;38732;49.556;6.286;2023-03-12T10:12:21;99221.94;;;12.93;85.26
51321;BME280;38732;49.556;6.286;2023-03-12T10:23:52;99217.72;;;13.48;88.31
51321;BME280;38732;49.556;6.286;2023-03-12T10:26:50;99219.91;;;12.49;92.49
51321;BME280;38732;49.556;6.286;2023-03-12T10:29:33;99215.34;;;11.92;97.48
51321;BME280;38732;49.556;6.286;2023-03-12T10:32:07;99218.53;;;12.17;95.64
51321;BME280;38732;49.556;6.286;2023-03-12T10:35:03;99223.63;;;11.20;92.79
51321;BME280;38732;49.556;6.286;2023-03-12T10:37:45;99228.97;;;12.11;92.31
51321;BME280;38732;49.556;6.286;2023-03-12T10:40:17;99227.06;;;12.27;89.28
51321;BME280;38732;49.556;6.286;2023-03-12T10:42:46;99241.66;;;12.33;90.35
51321;BME280;38732;49.556;6.286;2023-03-12T10:45:25;99243.75;;;12.79;87.70
51321;BME280;38732;49.556;6.286;2023-03-12T10:47:58;99238.50;;;12.03;87.54
51321;BME280;38732;49.556;6.286;2023-03-12T10:50:30;99234.16;;;12.11;88.11
51321;BME280;38732;49.556;6.286;2023-03-12T10:55:58;99220.00;;;13.67;78.02
51321;BME280;38732;49.556;6.286;2023-03-12T10:58:32;99218.78;;;13.88;77.29
51321;BME280;38732;49.556;6.286;2023-03-12T11:01:02;99233.31;;;13.45;76.59
51321;BME280;38732;49.556;6.286;2023-03-12T11:03:30;99225.06;;;14.24;75.99
51321;BME280;38732;49.556;6.286;2023-03-12T11:06:00;99210.03;;;14.83;74.38
51321;BME280;38732;49.556;6.286;2023-03-12T11:08:32;99217.03;;;14.36;72.90
51321;BME280;38732;49.556;6.286;2023-03-12T11:11:02;99221.09;;;14.93;71.73
51321;BME280;38732;49.556;6.286;2023-03-12T11:13:35;99226.09;;;14.15;75.55
51321;BME280;38732;49.556;6.286;2023-03-12T11:19:02;99226.13;;;13.04;78.78
51321;BME280;38732;49.556;6.286;2023-03-12T11:21:35;99220.47;;;12.76;79.00
51321;BME280;38732;49.556;6.286;2023-03-12T11:24:13;99227.38;;;13.38;78.42
51321;BME280;38732;49.556;6.286;2023-03-12T11:29:21;99222.81;;;12.92;80.74
51321;BME280;38732;49.556;6.286;2023-03-12T11:31:58;99221.41;;;13.32;79.46
51321;BME280;38732;49.556;6.286;2023-03-12T11:34:30;99222.63;;;13.65;80.02
51321;BME280;38732;49.556;6.286;2023-03-12T11:37:04;99228.16;;;14.43;79.99
51321;BME280;38732;49.556;6.286;2023-03-12T11:39:50;99219.53;;;14.41;74.73
51321;BME280;38732;49.556;6.286;2023-03-12T11:42:43;99223.88;;;13.92;75.57
51321;BME280;38732;49.556;6.286;2023-03-12T11:51:04;99198.97;;;16.18;63.97
51321;BME280;38732;49.556;6.286;2023-03-12T11:56:35;99193.38;;;16.32;59.32
51321;BME280;38732;49.556;6.286;2023-03-12T12:02:24;99195.84;;;14.13;69.16
51321;BME280;38732;49.556;6.286;2023-03-12T12:08:13;99194.34;;;14.01;68.04
51321;BME280;38732;49.556;6.286;2023-03-12T12:11:07;99187.84;;;14.69;70.09
51321;BME280;38732;49.556;6.286;2023-03-12T12:14:07;99199.25;;;13.08;74.75
51321;BME280;38732;49.556;6.286;2023-03-12T12:16:46;99194.72;;;13.24;73.37
51321;BME280;38732;49.556;6.286;2023-03-12T12:22:27;99201.00;;;12.42;81.44
51321;BME280;38732;49.556;6.286;2023-03-12T12:25:17;99196.25;;;12.77;81.18
51321;BME280;38732;49.556;6.286;2023-03-12T12:31:00;99183.69;;;13.09;76.16
51321;BME280;38732;49.556;6.286;2023-03-12T12:33:44;99172.03;;;13.40;75.86
51321;BME280;38732;49.556;6.286;2023-03-12T12:36:16;99172.06;;;15.15;67.17
51321;BME280;38732;49.556;6.286;2023-03-12T12:38:57;99155.59;;;17.86;56.17
51321;BME280;38732;49.556;6.286;2023-03-12T12:41:31;99151.06;;;17.12;58.00
51321;BME280;38732;49.556;6.286;2023-03-12T12:44:10;99154.72;;;16.48;60.31
51321;BME280;38732;49.556;6.286;2023-03-12T12:46:48;99170.91;;;14.48;63.37
51321;BME280;38732;49.556;6.286;2023-03-12T12:49:27;99170.44;;;14.29;67.73
51321;BME280;38732;49.556;6.286;2023-03-12T12:52:00;99176.03;;;13.59;71.18
51321;BME280;38732;49.556;6.286;2023-03-12T12:57:38;99186.53;;;12.94;74.16
51321;BME280;38732;49.556;6.286;2023-03-12T13:03:18;99179.06;;;12.71;72.61
51321;BME280;38732;49.556;6.286;2023-03-12T13:05:59;99167.19;;;13.16;73.32
51321;BME280;38732;49.556;6.286;2023-03-12T13:13:49;99176.09;;;12.97;74.02
51321;BME280;38732;49.556;6.286;2023-03-12T13:16:41;99175.25;;;13.55;73.05
51321;BME280;38732;49.556;6.286;2023-03-12T13:24:38;99177.13;;;12.85;73.95
51321;BME280;38732;49.556;6.286;2023-03-12T13:27:16;99179.19;;;12.62;74.93
51321;BME280;38732;49.556;6.286;2023-03-12T13:29:47;99178.28;;;13.25;72.55
51321;BME280;38732;49.556;6.286;2023-03-12T13:43:13;99186.84;;;12.71;73.28
51321;BME280;38732;49.556;6.286;2023-03-12T13:48:26;99187.66;;;12.74;73.59
51321;BME280;38732;49.556;6.286;2023-03-12T13:51:03;99182.63;;;13.24;71.55
51321;BME280;38732;49.556;6.286;2023-03-12T13:53:38;99177.97;;;12.89;71.18
51321;BME280;38732;49.556;6.286;2023-03-12T13:56:10;99188.09;;;12.38;74.72
51321;BME280;38732;49.556;6.286;2023-03-12T13:59:00;99183.41;;;11.95;75.59
51321;BME280;38732;49.556;6.286;2023-03-12T14:01:40;99189.44;;;12.68;75.29
51321;BME280;38732;49.556;6.286;2023-03-12T14:04:17;99192.03;;;11.95;77.25
51321;BME280;38732;49.556;6.286;2023-03-12T14:07:03;99203.34;;;11.80;76.88
51321;BME280;38732;49.556;6.286;2023-03-12T14:09:39;99205.88;;;11.90;76.18
51321;BME280;38732;49.556;6.286;2023-03-12T14:13:07;99208.63;;;11.68;74.05
51321;BME280;38732;49.556;6.286;2023-03-12T14:15:49;99190.88;;;12.24;72.73
51321;BME280;38732;49.556;6.286;2023-03-12T14:18:24;99191.25;;;11.89;74.85
51321;BME280;38732;49.556;6.286;2023-03-12T14:20:55;99183.50;;;11.84;76.81
51321;BME280;38732;49.556;6.286;2023-03-12T14:23:34;99182.56;;;11.94;76.08
51321;BME280;38732;49.556;6.286;2023-03-12T14:26:04;99194.22;;;11.41;78.33
51321;BME280;38732;49.556;6.286;2023-03-12T14:28:39;99175.56;;;12.02;76.97
51321;BME280;38732;49.556;6.286;2023-03-12T14:31:16;99177.34;;;11.97;75.05
51321;BME280;38732;49.556;6.286;2023-03-12T14:39:31;99176.59;;;11.84;74.17
51321;BME280;38732;49.556;6.286;2023-03-12T14:42:04;99180.84;;;11.92;74.64
51321;BME280;38732;49.556;6.286;2023-03-12T14:44:35;99175.25;;;11.43;75.84
51321;BME280;38732;49.556;6.286;2023-03-12T14:47:09;99183.03;;;11.39;76.96